createdAt,value
2018-08-19T00:05:06.696Z,15.49
2018-08-19T00:10:01.672Z,15.85
2018-08-19T00:14:56.591Z,15.69
2018-08-19T00:19:51.488Z,15.51
2018-08-19T00:24:46.461Z,15.43
2018-08-19T00:29:41.316Z,15.58
2018-08-19T00:34:36.368Z,15.25
2018-08-19T00:39:31.195Z,15.35
2018-08-19T00:44:26.088Z,15.32
2018-08-19T00:49:21.017Z,15.12
2018-08-19T00:54:15.826Z,15.08
2018-08-19T00:59:11.811Z,15.03
2018-08-19T01:04:10.668Z,14.84
2018-08-19T01:09:06.098Z,14.96
2018-08-19T01:14:01.481Z,14.85
2018-08-19T01:18:59.811Z,14.80
2018-08-19T01:23:54.780Z,14.88
2018-08-19T01:28:49.637Z,14.59
2018-08-19T01:33:44.566Z,14.50
2018-08-19T01:38:39.517Z,14.46
2018-08-19T01:43:34.475Z,14.45
2018-08-19T01:48:29.736Z,14.27
2018-08-19T01:53:24.509Z,14.17
2018-08-19T01:58:19.303Z,14.24
2018-08-19T02:03:14.188Z,14.26
2018-08-19T02:08:09.373Z,14.19
2018-08-19T02:13:04.425Z,14.21
2018-08-19T02:18:00.394Z,14.07
2018-08-19T02:23:03.361Z,13.90
2018-08-19T02:27:58.194Z,14.08
2018-08-19T02:32:55.504Z,14.03
2018-08-19T02:37:50.446Z,13.85
2018-08-19T02:42:45.724Z,13.81
2018-08-19T02:47:40.523Z,13.75
2018-08-19T02:52:38.051Z,13.77
2018-08-19T02:57:33.728Z,13.62
2018-08-19T03:02:35.275Z,13.59
2018-08-19T03:07:31.180Z,13.79
2018-08-19T03:12:26.084Z,13.56
2018-08-19T03:17:20.924Z,13.47
2018-08-19T03:22:15.777Z,13.36
2018-08-19T03:27:10.684Z,13.29
2018-08-19T03:32:05.602Z,13.26
2018-08-19T03:37:00.471Z,13.29
2018-08-19T03:41:55.289Z,13.24
2018-08-19T03:46:50.366Z,13.19
2018-08-19T03:51:45.186Z,13.17
2018-08-19T03:56:40.068Z,13.03
2018-08-19T04:01:44.041Z,12.97
2018-08-19T04:06:39.979Z,13.12
2018-08-19T04:11:34.815Z,13.14
2018-08-19T04:16:30.626Z,13.21
2018-08-19T04:21:25.751Z,13.08
2018-08-19T04:26:20.604Z,13.21
2018-08-19T04:31:20.553Z,13.27
2018-08-19T04:36:17.394Z,13.39
2018-08-19T04:41:12.818Z,13.35
2018-08-19T04:46:07.799Z,13.62
2018-08-19T04:51:02.580Z,14.15
2018-08-19T04:55:57.618Z,14.80
2018-08-19T05:00:52.470Z,15.08
2018-08-19T05:05:47.328Z,16.10
2018-08-19T05:10:42.868Z,16.61
2018-08-19T05:15:38.226Z,17.43
2018-08-19T05:20:33.151Z,17.36
2018-08-19T05:25:27.953Z,16.65
2018-08-19T05:30:22.719Z,16.70
2018-08-19T05:35:17.529Z,17.11
2018-08-19T05:40:12.345Z,16.92
2018-08-19T05:45:07.771Z,16.86
2018-08-19T05:50:02.581Z,17.03
2018-08-19T05:55:00.850Z,16.50
2018-08-19T05:59:55.763Z,16.13
2018-08-19T06:04:50.828Z,16.31
2018-08-19T06:09:45.737Z,16.91
2018-08-19T06:14:40.565Z,16.97
2018-08-19T06:19:35.327Z,17.17
2018-08-19T06:24:30.239Z,17.21
2018-08-19T06:29:45.242Z,17.09
2018-08-19T06:34:40.287Z,17.14
2018-08-19T06:39:35.122Z,17.75
2018-08-19T06:44:29.926Z,18.02
2018-08-19T06:49:24.868Z,18.92
2018-08-19T06:54:19.842Z,19.10
2018-08-19T06:59:14.907Z,19.76
2018-08-19T07:04:10.016Z,19.78
2018-08-19T07:09:06.134Z,19.84
2018-08-19T07:14:01.005Z,20.64
2018-08-19T07:18:56.015Z,20.36
2018-08-19T07:23:51.141Z,20.51
2018-08-19T07:28:45.889Z,20.81
2018-08-19T07:33:40.810Z,21.21
2018-08-19T07:38:35.773Z,21.31
2018-08-19T07:43:30.696Z,22.00
2018-08-19T07:48:25.750Z,22.13
2018-08-19T07:53:20.526Z,22.41
2018-08-19T07:58:20.275Z,22.37
2018-08-19T08:03:15.167Z,23.13
2018-08-19T08:08:10.228Z,22.74
2018-08-19T08:13:12.297Z,23.60
2018-08-19T08:18:07.295Z,23.79
2018-08-19T08:23:12.394Z,24.17
2018-08-19T08:28:07.235Z,24.36
2018-08-19T08:33:02.038Z,24.63
2018-08-19T08:37:56.895Z,24.95
2018-08-19T08:42:52.664Z,25.44
2018-08-19T08:47:47.596Z,25.75
2018-08-19T08:52:45.125Z,26.74
2018-08-19T08:57:40.100Z,26.38
2018-08-19T09:02:35.030Z,26.78
2018-08-19T09:07:29.954Z,27.21
2018-08-19T09:12:41.771Z,27.14
2018-08-19T09:17:36.631Z,27.55
2018-08-19T09:22:31.426Z,28.11
2018-08-19T09:27:26.354Z,27.91
2018-08-19T09:32:21.691Z,28.40
2018-08-19T09:37:16.512Z,28.75
2018-08-19T09:42:13.121Z,29.29
2018-08-19T09:47:08.278Z,29.08
2018-08-19T09:52:03.200Z,29.12
2018-08-19T09:56:58.245Z,29.90
2018-08-19T10:01:53.131Z,29.62
2018-08-19T10:06:50.642Z,30.15
2018-08-19T10:11:45.520Z,30.16
2018-08-19T10:16:44.717Z,30.91
2018-08-19T10:21:39.680Z,30.96
2018-08-19T10:26:34.557Z,30.43
2018-08-19T10:31:29.485Z,30.43
2018-08-19T10:36:24.561Z,30.51
2018-08-19T10:41:19.501Z,30.87
2018-08-19T10:46:14.352Z,31.13
2018-08-19T10:51:09.201Z,31.40
2018-08-19T10:56:04.440Z,31.19
2018-08-19T11:00:59.412Z,31.60
2018-08-19T11:05:55.824Z,31.57
2018-08-19T11:10:50.828Z,31.61
2018-08-19T11:15:51.415Z,31.58
2018-08-19T11:20:49.607Z,31.82
2018-08-19T11:25:44.410Z,31.57
2018-08-19T11:30:39.328Z,30.88
2018-08-19T11:35:38.203Z,31.69
2018-08-19T11:40:33.254Z,31.77
2018-08-19T11:45:28.080Z,31.77
2018-08-19T11:50:22.808Z,31.31
2018-08-19T11:55:17.638Z,31.49
2018-08-19T12:00:12.445Z,31.69
2018-08-19T12:05:07.373Z,31.73
2018-08-19T12:10:02.255Z,31.44
2018-08-19T12:14:57.127Z,30.96
2018-08-19T12:19:51.934Z,31.45
2018-08-19T12:24:48.241Z,31.39
2018-08-19T12:29:43.876Z,31.67
2018-08-19T12:34:47.835Z,31.75
2018-08-19T12:39:42.688Z,32.43
2018-08-19T12:44:37.633Z,32.14
2018-08-19T12:49:40.320Z,31.34
2018-08-19T12:54:35.288Z,31.39
2018-08-19T12:59:30.225Z,31.74
2018-08-19T13:04:25.075Z,31.64
2018-08-19T13:09:20.060Z,32.17
2018-08-19T13:14:14.951Z,32.30
2018-08-19T13:19:09.857Z,32.09
2018-08-19T13:24:04.724Z,31.93
2018-08-19T13:28:59.557Z,31.77
2018-08-19T13:33:54.423Z,31.94
2018-08-19T13:38:49.390Z,32.17
2018-08-19T13:43:44.230Z,31.74
2018-08-19T13:48:39.160Z,31.70
2018-08-19T13:53:33.984Z,31.47
2018-08-19T13:58:28.953Z,31.38
2018-08-19T14:03:23.919Z,31.66
2018-08-19T14:08:18.859Z,31.56
2018-08-19T14:13:13.715Z,31.72
2018-08-19T14:18:08.504Z,31.75
2018-08-19T14:23:03.333Z,32.03
2018-08-19T14:27:58.176Z,32.23
2018-08-19T14:32:53.164Z,31.60
2018-08-19T14:37:48.086Z,32.14
2018-08-19T14:42:43.075Z,32.12
2018-08-19T14:47:37.963Z,31.75
2018-08-19T14:52:32.896Z,32.15
2018-08-19T14:57:27.823Z,32.02
2018-08-19T15:02:34.481Z,31.84
2018-08-19T15:07:29.352Z,31.63
2018-08-19T15:12:25.435Z,31.79
2018-08-19T15:17:20.374Z,32.00
2018-08-19T15:22:15.352Z,31.50
2018-08-19T15:27:10.266Z,31.65
2018-08-19T15:32:05.297Z,31.97
2018-08-19T15:37:00.198Z,32.31
2018-08-19T15:41:55.117Z,31.96
2018-08-19T15:46:50.121Z,31.70
2018-08-19T15:51:45.081Z,31.72
2018-08-19T15:56:40.037Z,31.45
2018-08-19T16:01:35.647Z,31.58
2018-08-19T16:06:30.602Z,30.95
2018-08-19T16:11:25.483Z,30.95
2018-08-19T16:16:23.241Z,30.73
2018-08-19T16:21:18.064Z,30.66
2018-08-19T16:26:12.983Z,30.47
2018-08-19T16:31:07.842Z,30.38
2018-08-19T16:36:02.700Z,30.31
2018-08-19T16:40:57.627Z,30.21
2018-08-19T16:45:52.462Z,29.98
2018-08-19T16:50:47.489Z,29.91
2018-08-19T16:55:42.354Z,29.58
2018-08-19T17:00:37.163Z,29.30
2018-08-19T17:05:34.485Z,29.11
2018-08-19T17:10:30.335Z,28.93
2018-08-19T17:15:25.175Z,28.64
2018-08-19T17:20:19.957Z,28.54
2018-08-19T17:25:14.958Z,28.38
2018-08-19T17:30:13.843Z,28.35
2018-08-19T17:35:08.900Z,27.97
2018-08-19T17:40:03.981Z,27.85
2018-08-19T17:44:58.905Z,27.47
2018-08-19T17:49:54.497Z,26.92
2018-08-19T17:54:49.363Z,26.69
2018-08-19T17:59:44.321Z,26.13
2018-08-19T18:04:44.345Z,25.91
2018-08-19T18:09:43.218Z,25.79
2018-08-19T18:14:38.055Z,25.73
2018-08-19T18:19:37.134Z,25.43
2018-08-19T18:24:31.951Z,25.28
2018-08-19T18:29:26.885Z,25.11
2018-08-19T18:34:21.759Z,25.00
2018-08-19T18:39:16.625Z,24.78
2018-08-19T18:44:12.528Z,24.60
2018-08-19T18:49:11.960Z,24.52
2018-08-19T18:54:07.272Z,24.40
2018-08-19T18:59:02.941Z,24.47
2018-08-19T19:03:57.899Z,24.38
2018-08-19T19:08:52.971Z,24.18
2018-08-19T19:13:47.929Z,23.85
2018-08-19T19:18:42.817Z,23.54
2018-08-19T19:23:39.617Z,23.12
2018-08-19T19:28:34.670Z,22.88
2018-08-19T19:33:29.525Z,22.74
2018-08-19T19:38:24.451Z,22.38
2018-08-19T19:43:19.425Z,22.08
2018-08-19T19:48:14.302Z,21.90
2018-08-19T19:53:09.322Z,21.72
2018-08-19T19:58:04.438Z,21.50
2018-08-19T20:03:00.036Z,21.45
2018-08-19T20:07:55.096Z,21.32
2018-08-19T20:12:50.081Z,21.05
2018-08-19T20:17:45.110Z,20.86
2018-08-19T20:22:40.183Z,20.82
2018-08-19T20:27:35.189Z,20.65
2018-08-19T20:32:30.132Z,20.56
2018-08-19T20:37:26.485Z,20.44
2018-08-19T20:42:21.706Z,20.48
2018-08-19T20:47:16.804Z,20.29
2018-08-19T20:52:11.811Z,20.07
2018-08-19T20:57:06.934Z,19.84
2018-08-19T21:02:02.063Z,19.69
2018-08-19T21:06:57.089Z,19.59
2018-08-19T21:11:52.137Z,19.51
2018-08-19T21:16:47.041Z,19.44
2018-08-19T21:21:41.977Z,19.50
2018-08-19T21:26:37.065Z,19.32
2018-08-19T21:31:33.061Z,19.24
2018-08-19T21:36:27.992Z,19.12
2018-08-19T21:41:23.018Z,19.16
2018-08-19T21:46:17.867Z,19.10
2018-08-19T21:51:12.765Z,19.30
2018-08-19T21:56:07.905Z,18.93
2018-08-19T22:01:04.418Z,18.69
2018-08-19T22:05:59.266Z,18.53
2018-08-19T22:10:54.125Z,18.53
2018-08-19T22:15:49.391Z,18.33
2018-08-19T22:21:06.207Z,18.25
2018-08-19T22:26:01.068Z,18.23
2018-08-19T22:30:55.954Z,18.16
2018-08-19T22:35:50.903Z,18.15
2018-08-19T22:40:45.914Z,17.98
2018-08-19T22:45:40.959Z,17.89
2018-08-19T22:50:35.819Z,17.88
2018-08-19T22:55:30.693Z,17.73
2018-08-19T23:00:26.275Z,17.67
2018-08-19T23:05:21.235Z,17.63
2018-08-19T23:10:16.060Z,17.53
2018-08-19T23:15:27.614Z,17.29
2018-08-19T23:20:22.567Z,17.41
2018-08-19T23:25:17.486Z,17.29
2018-08-19T23:30:12.361Z,17.17
2018-08-19T23:35:07.276Z,17.16
2018-08-19T23:40:02.155Z,17.19
2018-08-19T23:44:57.197Z,17.14
2018-08-19T23:49:52.165Z,17.48
2018-08-19T23:54:47.078Z,17.42
2018-08-19T23:59:42.201Z,17.43
